Time;durP1;ratioP1;P1;durP2;ratioP2;P2;SDS_P1;SDS_P2;PMS_P1;PMS_P2;Temp;Humidity;BMP_temperature;BMP_pressure;BME280_temperature;BME280_humidity;BME280_pressure;Samples;Min_cycle;Max_cycle;Signal;HPM_P1;HPM_P2
2022/05/27 00:01:16;;;;;;;7.50;3.10;;;;;;;14.66;76.33;101982.19;5053820;28;20461;-83
2022/05/27 00:03:41;;;;;;;8.05;3.33;;;;;;;14.70;76.28;101987.09;5053563;28;20029;-83
2022/05/27 00:06:07;;;;;;;6.80;2.85;;;;;;;14.55;76.33;101959.44;5053205;28;20427;-84
2022/05/27 00:08:34;;;;;;;8.88;2.88;;;;;;;14.70;76.46;101986.25;5053468;28;20117;-86
2022/05/27 00:11:00;;;;;;;9.95;3.13;;;;;;;14.66;76.70;101985.63;5053302;28;20063;-83
2022/05/27 00:13:27;;;;;;;8.27;3.28;;;;;;;14.58;76.59;101975.69;5053478;28;20017;-86
2022/05/27 00:15:53;;;;;;;7.85;3.05;;;;;;;14.64;76.86;101984.88;5053392;28;20056;-85
2022/05/27 00:18:20;;;;;;;7.80;3.33;;;;;;;14.66;76.95;101983.03;5035126;28;20075;-83
2022/05/27 00:20:47;;;;;;;7.78;3.30;;;;;;;14.62;77.03;101971.97;5053178;28;20021;-85
2022/05/27 00:23:12;;;;;;;7.20;3.00;;;;;;;14.41;77.13;101938.63;5053089;28;20503;-84
2022/05/27 00:25:38;;;;;;;8.73;3.22;;;;;;;14.61;77.19;101972.91;5052995;28;20021;-80
2022/05/27 00:28:03;;;;;;;8.35;2.97;;;;;;;14.63;77.08;101975.41;5053304;28;20029;-80
2022/05/27 00:30:29;;;;;;;10.48;3.20;;;;;;;14.63;77.15;101972.78;5035256;28;20465;-83
2022/05/27 00:32:55;;;;;;;7.40;3.00;;;;;;;14.61;77.29;101983.28;5052844;28;20435;-85
2022/05/27 00:35:20;;;;;;;7.82;3.33;;;;;;;14.32;77.36;101927.88;5053044;28;20029;-86
2022/05/27 00:37:46;;;;;;;9.60;3.30;;;;;;;14.60;77.60;101979.03;5052801;28;20025;-85
2022/05/27 00:40:13;;;;;;;11.23;3.92;;;;;;;14.59;77.70;101973.94;5053079;28;20024;-86
2022/05/27 00:42:43;;;;;;;8.68;3.38;;;;;;;14.60;77.89;101981.63;5052558;28;20031;-86
2022/05/27 00:45:25;;;;;;;8.25;3.47;;;;;;;14.61;77.78;101974.66;5053016;28;20053;-86
2022/05/27 00:47:54;;;;;;;9.05;3.53;;;;;;;14.60;78.05;101976.44;5052517;28;20085;-85
2022/05/27 00:50:24;;;;;;;9.63;3.60;;;;;;;14.60;78.10;101971.22;5052775;28;20421;-84
2022/05/27 00:52:49;;;;;;;9.02;3.65;;;;;;;14.61;78.14;101970.28;5052826;28;20496;-84
2022/05/27 00:55:19;;;;;;;12.27;4.43;;;;;;;14.58;78.69;101961.88;5052564;28;20063;-80
2022/05/27 00:57:49;;;;;;;12.73;3.95;;;;;;;14.42;79.52;101941.13;5052865;28;20016;-81
2022/05/27 01:00:19;;;;;;;12.55;4.40;;;;;;;14.52;80.40;101964.81;5052713;28;20028;-85
2022/05/27 01:02:45;;;;;;;11.35;4.75;;;;;;;14.47;82.19;101965.13;5052487;28;20021;-83
2022/05/27 01:05:13;;;;;;;14.88;4.47;;;;;;;14.33;83.80;101957.28;5052559;28;20029;-85
2022/05/27 01:07:39;;;;;;;12.15;4.25;;;;;;;14.29;84.15;101961.84;5052694;28;20032;-86
2022/05/27 01:10:08;;;;;;;10.48;5.00;;;;;;;13.53;84.73;101846.97;5052667;28;20029;-83
2022/05/27 01:13:06;;;;;;;12.93;4.72;;;;;;;14.26;85.19;101956.00;5052676;28;20036;-85
2022/05/27 01:15:46;;;;;;;10.50;4.90;;;;;;;14.21;86.37;101964.06;5052477;28;20037;-83
2022/05/27 01:18:11;;;;;;;11.45;5.05;;;;;;;14.17;86.84;101962.59;5052773;28;20028;-85
2022/05/27 01:20:55;;;;;;;9.40;5.25;;;;;;;14.15;87.11;101958.38;5052703;28;20171;-84
2022/05/27 01:23:55;;;;;;;12.77;5.20;;;;;;;14.07;87.43;101961.47;5052394;28;20033;-85
2022/05/27 01:26:52;;;;;;;11.15;5.70;;;;;;;13.95;87.93;101949.19;5052324;28;20124;-85
2022/05/27 01:29:20;;;;;;;14.65;5.47;;;;;;;13.92;89.76;101957.16;5052321;28;20021;-84
2022/05/27 01:31:54;;;;;;;14.55;6.32;;;;;;;13.68;90.75;101933.50;5052259;28;20112;-82
2022/05/27 01:34:28;;;;;;;14.30;6.38;;;;;;;13.81;91.64;101954.38;5052194;28;20031;-80
2022/05/27 01:37:24;;;;;;;13.88;6.03;;;;;;;13.67;92.22;101937.84;5052445;28;20029;-85
2022/05/27 01:40:14;;;;;;;15.65;6.60;;;;;;;12.78;92.45;101795.97;5034681;28;20036;-85
2022/05/27 01:43:35;;;;;;;11.82;6.53;;;;;;;13.76;92.08;101957.22;5052063;28;20060;-82
2022/05/27 01:46:11;;;;;;;15.38;6.78;;;;;;;13.73;93.27;101954.81;4964050;28;20143;-85
2022/05/27 01:48:45;;;;;;;14.02;6.75;;;;;;;13.72;93.45;101955.75;4971376;28;20038;-81
2022/05/27 01:51:21;;;;;;;15.77;6.40;;;;;;;13.69;94.06;101961.13;4971544;28;20483;-84
2022/05/27 01:53:50;;;;;;;16.50;7.30;;;;;;;13.65;94.58;101957.84;4972360;28;20491;-83
2022/05/27 01:56:21;;;;;;;14.45;7.20;;;;;;;13.53;95.81;101939.56;4974965;28;20134;-77
2022/05/27 01:58:58;;;;;;;14.02;7.47;;;;;;;13.40;95.79;101927.28;4974947;28;20023;-82
2022/05/27 02:01:28;;;;;;;16.65;7.15;;;;;;;13.32;96.37;101926.06;4975048;28;20050;-85
2022/05/27 02:04:03;;;;;;;15.40;7.18;;;;;;;13.50;96.83;101953.56;4974933;28;20030;-85
2022/05/27 02:06:36;;;;;;;14.10;7.47;;;;;;;13.46;97.27;101986.59;4974980;28;20053;-85
2022/05/27 02:09:19;;;;;;;14.73;6.72;;;;;;;13.32;96.93;101962.38;4974975;28;20058;-85
2022/05/27 02:11:48;;;;;;;14.68;7.55;;;;;;;13.27;96.45;101954.84;4974684;28;20534;-84
2022/05/27 02:14:39;;;;;;;12.55;6.55;;;;;;;13.45;95.82;101999.66;4974809;28;20078;-83
2022/05/27 02:17:11;;;;;;;7.38;4.40;;;;;;;13.09;94.55;101948.06;4974794;28;20395;-84
2022/05/27 02:19:43;;;;;;;7.18;3.00;;;;;;;13.23;93.20;101992.25;4974786;28;20035;-84
2022/05/27 02:22:49;;;;;;;7.18;3.05;;;;;;;12.37;93.82;101873.41;5046575;28;20131;-84
2022/05/27 02:25:21;;;;;;;5.70;3.13;;;;;;;12.90;95.59;101990.56;4974495;28;20043;-84
2022/05/27 02:27:52;;;;;;;6.72;3.30;;;;;;;12.82;97.48;101982.38;4974496;28;20094;-81
2022/05/27 02:30:21;;;;;;;6.95;2.95;;;;;;;12.63;98.44;101976.50;4974512;28;20422;-80
2022/05/27 02:35:44;;;;;;;5.18;3.08;;;;;;;12.52;99.94;101978.81;4974612;28;20078;-80
2022/05/27 02:38:10;;;;;;;6.80;3.55;;;;;;;12.11;100.00;101913.66;4974481;28;20038;-79
2022/05/27 02:40:50;;;;;;;7.55;3.40;;;;;;;12.41;100.00;101969.03;4974184;28;20027;-80
2022/05/27 02:43:32;;;;;;;7.95;3.15;;;;;;;12.41;100.00;101968.19;4974300;28;20033;-81
2022/05/27 02:46:21;;;;;;;11.35;4.20;;;;;;;12.40;100.00;101967.34;4974262;28;20030;-82
2022/05/27 02:49:21;;;;;;;9.43;4.07;;;;;;;12.25;100.00;101948.25;4974406;28;20042;-81
2022/05/27 02:51:46;;;;;;;9.60;4.55;;;;;;;12.35;100.00;101967.56;4954974;28;20047;-80
2022/05/27 02:54:28;;;;;;;7.25;3.70;;;;;;;12.29;100.00;101967.91;4954535;28;20066;-81
2022/05/27 02:57:04;;;;;;;11.23;3.70;;;;;;;12.30;100.00;101969.59;4954647;29;20061;-81
2022/05/27 02:59:31;;;;;;;9.85;3.50;;;;;;;12.29;100.00;101974.81;4954952;28;20031;-80
2022/05/27 03:02:09;;;;;;;9.05;3.45;;;;;;;12.27;100.00;101971.47;5012911;28;20449;-78
2022/05/27 03:04:38;;;;;;;7.90;3.88;;;;;;;12.05;100.00;101928.56;5012637;28;20022;-81
2022/05/27 03:07:16;;;;;;;8.15;2.95;;;;;;;12.09;100.00;101937.00;5012640;28;20026;-80
2022/05/27 03:09:52;;;;;;;8.48;3.13;;;;;;;12.17;100.00;101957.34;5012860;28;20505;-80
2022/05/27 03:12:39;;;;;;;8.75;3.72;;;;;;;12.02;100.00;101935.66;5012661;28;20033;-80
2022/05/27 03:15:20;;;;;;;8.68;3.72;;;;;;;12.21;100.00;101967.47;5012563;28;20044;-82
2022/05/27 03:18:10;;;;;;;7.30;3.35;;;;;;;12.28;100.00;101963.63;5012809;28;20033;-81
2022/05/27 03:20:41;;;;;;;8.52;3.72;;;;;;;12.35;100.00;101967.56;5012593;28;20042;-80
2022/05/27 03:23:27;;;;;;;7.60;4.18;;;;;;;12.39;100.00;101960.50;5012179;28;20594;-82
2022/05/27 03:26:03;;;;;;;8.35;4.45;;;;;;;12.44;100.00;101957.66;5012358;28;20383;-82
2022/05/27 03:28:40;;;;;;;7.60;4.28;;;;;;;12.48;100.00;101943.59;5026739;28;20091;-82
2022/05/27 03:31:18;;;;;;;9.63;4.47;;;;;;;12.36;100.00;101921.78;5054354;28;20487;-82
2022/05/27 03:33:49;;;;;;;9.25;4.30;;;;;;;12.52;100.00;101945.13;5054311;28;20029;-82
2022/05/27 03:36:35;;;;;;;8.93;4.20;;;;;;;12.52;100.00;101948.56;5054030;28;20546;-83
2022/05/27 03:39:30;;;;;;;7.80;4.75;;;;;;;12.59;100.00;101960.28;5054243;28;20036;-83
2022/05/27 03:42:01;;;;;;;8.95;4.35;;;;;;;12.31;100.00;101908.25;5053025;28;20443;-83
2022/05/27 03:44:27;;;;;;;11.32;4.65;;;;;;;12.53;100.00;101942.47;5053980;28;20025;-84
2022/05/27 03:46:55;;;;;;;10.40;5.00;;;;;;;12.58;100.00;101945.63;5054144;28;20880;-86
2022/05/27 03:49:20;;;;;;;9.27;4.53;;;;;;;12.60;100.00;101940.38;5053770;28;20091;-86
2022/05/27 03:51:56;;;;;;;10.05;4.70;;;;;;;12.59;100.00;101924.00;5054140;28;20032;-85
2022/05/27 03:54:22;;;;;;;12.00;4.55;;;;;;;12.46;100.00;101909.19;5035559;28;20516;-81
2022/05/27 03:56:47;;;;;;;9.82;4.70;;;;;;;12.46;100.00;101904.00;5053900;28;20109;-85
2022/05/27 03:59:14;;;;;;;10.65;4.90;;;;;;;12.75;100.00;101952.50;5053679;28;20029;-85
2022/05/27 04:01:43;;;;;;;6.97;4.60;;;;;;;12.70;100.00;101932.94;5053462;28;20025;-85
2022/05/27 04:04:10;;;;;;;9.10;4.53;;;;;;;12.83;100.00;101942.56;5053680;28;20029;-85
2022/05/27 04:06:36;;;;;;;8.90;4.78;;;;;;;12.69;100.00;101916.56;5053671;28;20108;-84
2022/05/27 04:09:01;;;;;;;8.95;4.80;;;;;;;12.93;100.00;101948.91;5053651;28;20119;-84
2022/05/27 04:11:30;;;;;;;9.75;4.82;;;;;;;12.99;100.00;101959.88;5053508;28;20111;-85
2022/05/27 04:13:55;;;;;;;8.98;5.00;;;;;;;12.99;100.00;101952.94;5053081;28;20448;-85
2022/05/27 04:16:21;;;;;;;7.15;4.97;;;;;;;12.79;100.00;101924.69;5052715;28;20032;-84
2022/05/27 04:18:46;;;;;;;9.50;5.05;;;;;;;13.03;100.00;101956.19;5053337;28;20029;-84
2022/05/27 04:21:11;;;;;;;10.45;5.38;;;;;;;13.06;100.00;101962.03;5053193;28;20554;-82
2022/05/27 04:23:37;;;;;;;8.98;5.15;;;;;;;13.03;100.00;101958.78;5053226;28;20037;-83
2022/05/27 04:26:03;;;;;;;9.35;5.55;;;;;;;13.05;100.00;101954.34;5035362;28;20016;-84
2022/05/27 04:28:29;;;;;;;13.25;5.93;;;;;;;13.21;100.00;101968.16;5053040;28;20108;-85
2022/05/27 04:30:54;;;;;;;9.05;6.10;;;;;;;13.28;100.00;101969.50;5053057;28;20179;-84
2022/05/27 04:33:19;;;;;;;10.30;5.95;;;;;;;13.36;100.00;101971.66;5052934;28;20096;-85
2022/05/27 04:35:46;;;;;;;10.50;6.50;;;;;;;13.46;100.00;101967.59;5053186;28;20036;-83
2022/05/27 04:38:12;;;;;;;9.98;6.82;;;;;;;13.52;100.00;101971.63;5053030;28;20114;-84
2022/05/27 04:40:37;;;;;;;16.02;7.88;;;;;;;13.55;100.00;101958.47;5034872;28;20064;-85
2022/05/27 04:43:03;;;;;;;12.85;7.28;;;;;;;13.80;100.00;101965.69;5052736;28;20112;-84
2022/05/27 04:45:29;;;;;;;11.85;7.50;;;;;;;14.01;100.00;101969.63;5052694;28;20032;-84
2022/05/27 04:47:55;;;;;;;12.05;7.75;;;;;;;14.17;100.00;101957.38;5052668;28;20489;-85
2022/05/27 04:50:21;;;;;;;15.40;9.07;;;;;;;14.47;98.88;101972.09;5052994;28;20392;-81
2022/05/27 04:52:47;;;;;;;13.70;8.25;;;;;;;14.69;97.80;101964.63;5053154;28;20025;-84
2022/05/27 04:55:15;;;;;;;16.27;8.40;;;;;;;14.76;97.48;101952.94;5052854;28;20029;-79
2022/05/27 04:57:43;;;;;;;17.50;8.98;;;;;;;14.99;96.18;101974.03;5052649;28;20102;-82
2022/05/27 05:00:15;;;;;;;16.60;8.68;;;;;;;14.96;94.82;101938.66;5052264;28;20392;-82
2022/05/27 05:02:42;;;;;;;21.20;9.38;;;;;;;14.97;94.67;101947.28;5052451;28;20029;-78
2022/05/27 05:05:08;;;;;;;16.98;8.50;;;;;;;15.09;94.71;101949.09;5052670;28;20036;-83
2022/05/27 05:07:35;;;;;;;19.88;9.23;;;;;;;15.32;93.89;101939.81;5052549;28;20461;-82
2022/05/27 05:10:01;;;;;;;17.33;8.68;;;;;;;15.84;92.67;101978.09;5052575;28;20056;-83
2022/05/27 05:12:26;;;;;;;18.50;8.88;;;;;;;15.84;92.08;101972.88;5052563;28;20472;-83
2022/05/27 05:14:52;;;;;;;24.10;9.30;;;;;;;15.24;92.13;101921.25;5052110;28;20025;-83
2022/05/27 05:17:18;;;;;;;19.77;8.73;;;;;;;15.37;92.03;101984.59;5052772;28;20419;-82
2022/05/27 05:19:44;;;;;;;20.40;8.20;;;;;;;15.26;93.08;101982.69;5052729;28;20056;-85
2022/05/27 05:22:09;;;;;;;21.48;8.77;;;;;;;15.02;93.65;101932.22;5052295;28;20127;-83
2022/05/27 05:24:35;;;;;;;20.35;8.75;;;;;;;15.54;92.20;101994.75;5052406;28;20380;-82
2022/05/27 05:27:00;;;;;;;18.35;7.88;;;;;;;15.81;90.64;101978.25;5052358;28;20033;-82
2022/05/27 05:29:26;;;;;;;19.50;7.43;;;;;;;15.93;88.60;101986.13;5054375;28;20100;-82
2022/05/27 05:31:52;;;;;;;18.58;7.53;;;;;;;16.00;88.81;101976.09;5056398;28;20473;-82
2022/05/27 05:34:18;;;;;;;20.38;7.53;;;;;;;16.30;87.72;101988.81;5056639;28;20074;-82
2022/05/27 05:36:43;;;;;;;18.00;7.10;;;;;;;16.47;85.25;102003.31;5056400;28;20105;-84
2022/05/27 05:39:09;;;;;;;16.67;6.78;;;;;;;16.17;84.89;101988.00;5056504;28;20574;-84
2022/05/27 05:41:37;;;;;;;15.68;6.43;;;;;;;16.20;85.42;102009.44;5021696;28;20025;-84
2022/05/27 05:44:05;;;;;;;14.95;5.50;;;;;;;16.87;84.27;102014.41;5056163;28;20087;-85
2022/05/27 05:46:35;;;;;;;19.02;6.15;;;;;;;17.71;78.68;101940.44;5056019;28;20013;-82
2022/05/27 05:49:01;;;;;;;18.75;6.13;;;;;;;18.71;73.10;101941.41;5056288;28;20056;-84
2022/05/27 05:51:27;;;;;;;17.45;5.30;;;;;;;18.79;70.22;101980.91;5054553;28;20437;-84
2022/05/27 05:53:54;;;;;;;16.23;4.45;;;;;;;18.47;70.58;102018.22;5056040;28;20053;-83
2022/05/27 05:56:30;;;;;;;14.95;4.80;;;;;;;17.27;71.96;101857.53;5056179;28;20021;-84
2022/05/27 05:58:56;;;;;;;12.38;4.07;;;;;;;17.32;71.75;101897.22;5037541;28;20528;-82
2022/05/27 06:01:21;;;;;;;14.32;4.55;;;;;;;17.02;71.18;101901.13;5055785;28;20082;-80
2022/05/27 06:03:59;;;;;;;12.65;4.38;;;;;;;16.54;73.47;101903.69;5056052;28;20020;-81
2022/05/27 06:06:24;;;;;;;14.23;4.00;;;;;;;16.85;73.87;102032.78;5055865;28;20052;-80
2022/05/27 06:08:50;;;;;;;14.73;4.28;;;;;;;16.68;74.31;102033.13;5055833;28;20071;-79
2022/05/27 06:11:15;;;;;;;14.68;3.97;;;;;;;16.33;74.85;101966.00;5055781;28;20044;-80
2022/05/27 06:13:41;;;;;;;14.10;4.40;;;;;;;16.71;74.49;102013.81;5055564;28;20029;-81
2022/05/27 06:16:14;;;;;;;10.93;3.67;;;;;;;16.80;74.82;102032.28;5055514;28;20060;-80
2022/05/27 06:18:40;;;;;;;11.90;3.75;;;;;;;16.73;72.11;102031.06;5055730;28;20021;-83
2022/05/27 06:21:17;;;;;;;14.50;3.80;;;;;;;16.93;73.66;102024.44;5055277;28;20021;-79
2022/05/27 06:23:48;;;;;;;10.43;3.30;;;;;;;18.30;69.91;102031.78;5048534;28;20029;-81
2022/05/27 06:26:17;;;;;;;10.65;3.75;;;;;;;20.27;64.13;102036.84;5055278;28;20025;-79
2022/05/27 06:37:21;;;;;;;9.60;2.80;;;;;;;22.68;51.56;102011.59;5077122;23;20057;-81
2022/05/27 06:39:51;;;;;;;15.38;3.00;;;;;;;23.31;49.85;102028.28;5015116;28;20018;-80
2022/05/27 06:42:17;;;;;;;9.10;2.92;;;;;;;23.42;47.30;101995.59;5015465;28;20057;-82
2022/05/27 06:44:43;;;;;;;9.13;2.65;;;;;;;23.63;47.32;102026.94;5015419;28;20068;-81
2022/05/27 06:47:09;;;;;;;11.88;3.08;;;;;;;23.89;44.63;102026.94;5015405;28;20028;-80
2022/05/27 06:49:37;;;;;;;7.80;2.33;;;;;;;23.82;45.29;102033.84;5015159;28;20022;-81
2022/05/27 06:52:04;;;;;;;10.73;3.08;;;;;;;23.60;45.13;102029.88;5015246;28;20026;-82
2022/05/27 06:54:31;;;;;;;13.00;2.63;;;;;;;23.57;45.75;101980.84;5015141;28;20113;-81
2022/05/27 06:56:57;;;;;;;8.40;2.45;;;;;;;23.97;45.51;102027.00;5015168;28;20068;-81
2022/05/27 07:02:07;;;;;;;9.77;2.33;;;;;;;23.70;44.47;101954.13;5014977;28;20088;-82
2022/05/27 07:04:32;;;;;;;8.48;2.20;;;;;;;24.33;42.57;102030.38;5015016;28;20085;-78
2022/05/27 07:06:58;;;;;;;10.65;2.80;;;;;;;24.35;43.64;102038.13;5014914;28;20425;-77
2022/05/27 07:09:25;;;;;;;7.05;2.13;;;;;;;23.75;43.53;102038.88;5014910;28;20033;-79
2022/05/27 07:11:53;;;;;;;5.88;1.98;;;;;;;22.54;43.79;102002.38;5015074;28;20033;-78
2022/05/27 07:14:18;;;;;;;9.15;2.10;;;;;;;21.01;46.51;102047.06;5014998;28;20056;-79
2022/05/27 07:16:46;;;;;;;8.00;2.42;;;;;;;19.71;50.62;102052.88;5014608;28;20100;-77
2022/05/27 07:19:11;;;;;;;12.90;2.80;;;;;;;18.57;53.13;101986.94;5014729;28;20109;-76
2022/05/27 07:21:42;;;;;;;8.80;2.50;;;;;;;18.54;55.14;102049.97;5014488;28;20037;-76
2022/05/27 07:24:11;;;;;;;13.00;2.75;;;;;;;18.13;57.83;102047.91;5013905;28;20057;-76
2022/05/27 07:26:38;;;;;;;9.63;2.88;;;;;;;18.08;57.62;102050.84;4997052;28;20028;-79
2022/05/27 07:29:05;;;;;;;9.40;2.70;;;;;;;17.80;59.70;101992.00;4996276;28;20028;-79
2022/05/27 07:31:31;;;;;;;10.80;2.88;;;;;;;19.16;56.56;102018.03;4997028;28;20385;-79
2022/05/27 07:33:57;;;;;;;8.50;2.35;;;;;;;19.35;54.43;102010.34;5014377;28;20021;-79
2022/05/27 07:36:25;;;;;;;8.23;2.60;;;;;;;19.44;54.83;102061.16;5025213;28;20052;-79
2022/05/27 07:38:53;;;;;;;7.45;2.40;;;;;;;19.27;55.09;102061.69;5034280;28;20064;-77
2022/05/27 07:41:20;;;;;;;13.68;2.80;;;;;;;19.09;57.11;102054.38;5034248;28;20108;-76
2022/05/27 07:43:46;;;;;;;10.93;2.80;;;;;;;19.08;56.98;102034.38;5034321;28;20027;-78
2022/05/27 07:46:13;;;;;;;8.95;2.65;;;;;;;19.16;57.10;102058.13;5034042;28;20372;-78
2022/05/27 07:48:39;;;;;;;8.90;2.22;;;;;;;18.60;54.78;102008.47;5033901;28;20025;-77
2022/05/27 07:51:04;;;;;;;10.43;2.40;;;;;;;18.07;55.61;102025.66;5031933;28;20120;-75
2022/05/27 07:53:30;;;;;;;6.03;2.20;;;;;;;18.41;56.80;102073.63;5033819;28;20032;-76
2022/05/27 07:55:55;;;;;;;10.30;2.60;;;;;;;18.30;57.66;102035.22;5033853;28;20026;-78
2022/05/27 07:58:27;;;;;;;13.65;2.72;;;;;;;18.55;57.52;102068.16;5033817;28;20075;-78
2022/05/27 08:00:52;;;;;;;9.52;2.88;;;;;;;18.32;58.07;102053.41;5033501;28;20464;-79
2022/05/27 08:03:18;;;;;;;13.40;2.83;;;;;;;18.21;59.50;102076.91;5033643;28;20033;-79
2022/05/27 08:05:44;;;;;;;10.82;3.05;;;;;;;17.87;60.00;102063.75;5033751;28;20022;-78
2022/05/27 08:08:09;;;;;;;14.93;3.33;;;;;;;17.77;61.08;102076.66;5033731;28;20029;-79
2022/05/27 08:10:36;;;;;;;11.88;2.92;;;;;;;17.38;60.31;102046.41;5033640;28;20030;-78
2022/05/27 08:13:03;;;;;;;14.93;3.38;;;;;;;17.60;57.46;102081.41;5033594;28;20079;-78
2022/05/27 08:15:29;;;;;;;12.88;2.88;;;;;;;17.39;57.82;102068.94;5033407;28;20034;-79
2022/05/27 08:17:56;;;;;;;13.02;3.22;;;;;;;17.27;56.89;102040.28;5033314;28;20033;-77
2022/05/27 08:20:25;;;;;;;10.40;3.70;;;;;;;17.46;57.66;102053.69;5031891;28;20409;-78
2022/05/27 08:22:53;;;;;;;10.60;3.15;;;;;;;17.62;57.30;102085.59;5033427;28;20041;-78
2022/05/27 08:25:20;;;;;;;10.55;3.15;;;;;;;16.94;55.68;101936.56;5033479;28;20029;-80
2022/05/27 08:27:45;;;;;;;10.40;2.95;;;;;;;17.55;57.27;102052.19;5033584;28;20103;-78
2022/05/27 08:30:14;;;;;;;10.00;2.75;;;;;;;18.17;56.81;102096.38;5031604;28;20069;-78
2022/05/27 08:32:39;;;;;;;9.20;3.35;;;;;;;18.06;55.21;102089.34;5032961;28;20112;-77
2022/05/27 08:38:01;;;;;;;11.35;2.83;;;;;;;16.83;54.89;102045.13;5033595;28;20045;-78
2022/05/27 08:41:02;;;;;;;11.80;2.65;;;;;;;16.96;58.85;102099.88;5033229;28;20494;-81
2022/05/27 08:43:40;;;;;;;7.00;2.50;;;;;;;16.96;60.41;102093.84;5033242;28;20033;-81
2022/05/27 08:46:42;;;;;;;14.50;3.13;;;;;;;17.12;61.36;102097.03;5031750;28;20083;-78
2022/05/27 08:49:14;;;;;;;11.35;3.42;;;;;;;16.98;59.93;102103.22;5029459;28;20038;-80
2022/05/27 08:51:45;;;;;;;10.20;3.33;;;;;;;17.05;58.63;102090.59;5032977;28;20109;-80
2022/05/27 08:54:24;;;;;;;12.43;3.35;;;;;;;17.01;59.38;102027.34;5032957;28;20390;-79
2022/05/27 08:59:44;;;;;;;13.73;3.42;;;;;;;17.38;56.51;102061.22;5032988;28;20084;-78
2022/05/27 09:02:15;;;;;;;11.40;2.88;;;;;;;17.58;56.56;102104.19;5032640;28;20029;-77
2022/05/27 09:04:43;;;;;;;13.82;3.08;;;;;;;17.10;53.49;102114.56;5032981;28;20484;-81
2022/05/27 09:07:17;;;;;;;11.40;3.28;;;;;;;16.78;55.70;102104.59;5032747;28;20095;-78
2022/05/27 09:09:43;;;;;;;10.98;3.17;;;;;;;16.83;57.28;102105.13;5032796;28;20563;-77
2022/05/27 09:12:26;;;;;;;12.57;3.08;;;;;;;16.81;54.67;102103.53;5032439;28;20021;-80
2022/05/27 09:15:01;;;;;;;10.43;2.72;;;;;;;16.87;53.58;102090.09;5032870;28;20033;-80
2022/05/27 09:17:37;;;;;;;11.55;3.28;;;;;;;17.26;53.93;102104.72;5032366;28;20058;-81
2022/05/27 09:20:26;;;;;;;13.27;3.20;;;;;;;17.00;56.23;102066.56;5030826;28;20033;-78
2022/05/27 09:23:07;;;;;;;13.40;3.80;;;;;;;17.17;53.88;102115.81;5032113;28;20041;-76
2022/05/27 09:25:54;;;;;;;10.20;2.90;;;;;;;16.94;54.79;102107.00;5032763;28;20444;-77
2022/05/27 09:28:31;;;;;;;8.73;3.28;;;;;;;16.77;55.25;102121.19;5032719;28;20024;-75
2022/05/27 09:30:58;;;;;;;10.40;2.88;;;;;;;16.66;54.68;102102.81;5032526;28;20030;-74
2022/05/27 09:33:26;;;;;;;11.85;3.15;;;;;;;16.71;55.09;102103.34;5033183;28;20124;-74
2022/05/27 09:36:06;;;;;;;11.35;3.10;;;;;;;16.62;54.16;102109.19;5032418;28;20072;-78
2022/05/27 09:38:35;;;;;;;14.45;3.75;;;;;;;16.65;54.17;102129.81;5030551;28;20041;-75
2022/05/27 09:41:08;;;;;;;13.10;3.55;;;;;;;16.77;55.26;102134.22;5032237;28;20495;-74
2022/05/27 09:43:42;;;;;;;14.80;3.38;;;;;;;17.11;53.79;102131.91;5032319;28;20388;-78
2022/05/27 09:46:14;;;;;;;13.00;3.28;;;;;;;17.26;53.25;102123.00;5032502;28;20026;-76
2022/05/27 09:48:39;;;;;;;11.75;3.20;;;;;;;17.62;51.57;102139.63;5032085;28;20064;-76
2022/05/27 09:51:09;;;;;;;14.40;3.47;;;;;;;17.49;52.05;102139.63;5032152;28;20049;-75
2022/05/27 09:53:40;;;;;;;12.93;3.28;;;;;;;17.27;52.61;102148.16;5032305;28;20474;-76
2022/05/27 09:56:11;;;;;;;11.23;3.05;;;;;;;16.96;52.87;102139.03;5032156;28;20049;-77
2022/05/27 09:58:40;;;;;;;8.83;2.77;;;;;;;16.96;54.88;102128.59;5030549;28;20116;-75
2022/05/27 10:01:26;;;;;;;10.55;3.17;;;;;;;17.36;53.82;102120.56;5032179;28;20075;-78
2022/05/27 10:04:06;;;;;;;12.63;3.22;;;;;;;17.94;51.65;102119.84;5030493;28;20048;-86
2022/05/27 10:06:34;;;;;;;9.85;2.80;;;;;;;17.62;50.64;102142.22;5032974;28;20088;-80
2022/05/27 10:09:03;;;;;;;10.63;2.75;;;;;;;17.52;51.68;102149.06;5031861;28;20030;-77
2022/05/27 10:11:52;;;;;;;11.00;3.10;;;;;;;17.28;48.45;102143.78;5031964;28;20462;-77
2022/05/27 10:14:34;;;;;;;12.13;3.83;;;;;;;16.99;48.35;102114.47;5032224;28;20156;-85
2022/05/27 10:17:12;;;;;;;10.63;3.10;;;;;;;16.88;47.04;102110.84;5035582;28;20492;-85
2022/05/27 10:19:41;;;;;;;12.10;3.28;;;;;;;16.76;46.66;102106.47;5035471;28;20552;-85
2022/05/27 10:22:09;;;;;;;13.00;3.17;;;;;;;17.19;49.80;102146.09;5035249;28;20071;-84
2022/05/27 10:24:43;;;;;;;8.27;2.90;;;;;;;17.56;48.83;102132.22;5035711;28;20033;-84
2022/05/27 10:27:13;;;;;;;9.88;3.15;;;;;;;17.75;47.03;102153.47;5035563;28;20028;-84
2022/05/27 10:29:50;;;;;;;11.10;3.22;;;;;;;17.72;48.54;102156.31;5035590;28;20026;-83
2022/05/27 10:32:37;;;;;;;13.02;3.30;;;;;;;17.54;47.72;102113.19;5035310;28;20140;-79
2022/05/27 10:35:26;;;;;;;12.15;3.38;;;;;;;17.56;47.69;102153.94;5035429;28;20033;-83
2022/05/27 10:38:42;;;;;;;7.55;2.58;;;;;;;17.28;46.48;102155.03;5022793;28;20567;-76
2022/05/27 10:41:16;;;;;;;9.43;2.60;;;;;;;16.93;48.38;102123.59;4955012;29;20058;-78
2022/05/27 10:44:07;;;;;;;10.43;3.03;;;;;;;17.23;48.46;102114.56;4955016;28;20522;-78
2022/05/27 10:46:56;;;;;;;7.47;2.50;;;;;;;18.00;47.08;102140.31;4938724;29;20424;-78
2022/05/27 10:49:50;;;;;;;10.55;3.03;;;;;;;18.29;45.50;102132.94;4954838;29;20454;-79
2022/05/27 10:52:24;;;;;;;10.98;3.30;;;;;;;18.00;45.25;102110.72;4954789;29;20089;-79
2022/05/27 10:55:13;;;;;;;8.98;2.83;;;;;;;17.93;45.98;102157.38;4954959;29;20023;-78
2022/05/27 11:04:03;;;;;;;10.40;2.80;;;;;;;18.19;47.01;102157.22;4954659;29;20046;-79
2022/05/27 11:07:19;;;;;;;10.40;2.92;;;;;;;18.12;44.70;102158.66;4954760;29;20038;-79
2022/05/27 11:10:14;;;;;;;11.55;2.58;;;;;;;18.23;45.97;102158.69;4897651;29;20045;-79
2022/05/27 11:16:04;;;;;;;9.27;2.42;;;;;;;18.89;44.29;102152.78;4841890;29;20443;-75
2022/05/27 11:19:06;;;;;;;10.73;2.67;;;;;;;19.19;45.11;102154.81;4897035;29;20044;-75
2022/05/27 11:21:55;;;;;;;11.23;3.03;;;;;;;18.71;42.92;102161.22;4897383;29;20036;-74
2022/05/27 11:24:42;;;;;;;10.15;3.13;;;;;;;17.88;43.85;102171.72;4897391;29;20039;-74
2022/05/27 11:27:41;;;;;;;7.40;2.75;;;;;;;17.55;44.40;102157.50;4897190;29;20088;-75
2022/05/27 11:30:32;;;;;;;17.58;2.90;;;;;;;17.50;44.15;102164.81;4881606;29;20103;-75
2022/05/27 11:33:15;;;;;;;6.30;2.40;;;;;;;17.66;46.31;102159.34;4896793;29;20043;-75
2022/05/27 11:35:56;;;;;;;9.77;2.92;;;;;;;17.84;44.58;102157.22;4897025;29;20041;-75
2022/05/27 11:38:53;;;;;;;9.98;2.70;;;;;;;18.05;44.97;102172.16;4897072;29;20041;-75
2022/05/27 11:41:38;;;;;;;13.20;3.17;;;;;;;18.00;45.71;102170.84;4896922;29;20043;-74
2022/05/27 11:44:25;;;;;;;10.57;2.85;;;;;;;17.73;44.09;102168.44;4901741;29;20029;-76
2022/05/27 11:47:14;;;;;;;13.50;2.97;;;;;;;17.72;44.59;102179.84;4953896;29;20019;-75
2022/05/27 11:49:56;;;;;;;12.10;2.50;;;;;;;17.41;44.51;102176.75;5012392;28;20045;-77
2022/05/27 11:52:42;;;;;;;10.35;2.50;;;;;;;17.32;44.40;102187.03;5034096;28;20032;-76
2022/05/27 11:55:08;;;;;;;9.93;2.60;;;;;;;17.15;43.90;102186.41;5033936;28;20036;-77
2022/05/27 11:58:01;;;;;;;7.45;2.55;;;;;;;17.33;45.44;102179.06;5033804;28;20030;-75
2022/05/27 12:00:31;;;;;;;8.68;2.60;;;;;;;17.37;45.06;102140.50;5033708;28;20444;-75
2022/05/27 12:03:04;;;;;;;11.90;2.75;;;;;;;17.35;43.50;102171.97;5033820;28;20061;-74
2022/05/27 12:05:33;;;;;;;12.00;2.65;;;;;;;17.14;45.78;102183.91;5033634;28;20114;-76
2022/05/27 12:08:05;;;;;;;7.75;2.42;;;;;;;16.98;44.92;102136.31;5033728;28;20040;-76
2022/05/27 12:10:47;;;;;;;10.88;2.70;;;;;;;17.38;43.80;102181.34;5033608;28;20025;-76
2022/05/27 12:13:34;;;;;;;8.95;2.60;;;;;;;17.37;43.68;102193.56;5033450;28;20025;-76
2022/05/27 12:16:08;;;;;;;7.32;2.33;;;;;;;17.49;45.56;102179.66;5033306;28;20500;-75